Terminal Aerodrome Forecast
Issued by NWS

Home | Current Version | Previous Version | Text Only | Print | Product List | Glossary On
Versions: 1 2 3 4 5 6 7 8 9 10 11 12 13
620
FTUS45 KABQ 090540
TAFGUP
TAF
KGUP 090540Z 0906/1006 00000KT P6SM FEW100
     FM091900 23005KT P6SM BKN200
     FM100100 VRB03KT P6SM SCT250=

USA.gov is the U.S. government's official web portal to all federal, state and local government web resources and services.